createdAt,value
2022-08-22T20:20:54.795Z,29.30
2022-08-22T20:23:29.833Z,29.30
2022-08-22T20:25:57.445Z,29.20
2022-08-22T20:28:38.950Z,29.20
2022-08-22T20:31:12.389Z,29.10
2022-08-22T20:33:46.129Z,29.10
2022-08-22T20:36:27.801Z,29.00
2022-08-22T20:39:01.792Z,29.00
2022-08-22T20:41:41.483Z,29.00
2022-08-22T20:44:33.260Z,29.00
2022-08-22T20:47:06.131Z,28.90
2022-08-22T20:49:37.699Z,29.00
2022-08-22T20:52:12.600Z,28.90
2022-08-22T20:54:41.455Z,28.90
2022-08-22T20:57:18.172Z,28.80
2022-08-22T21:00:07.231Z,28.80
2022-08-22T21:02:42.739Z,28.70
2022-08-22T21:05:22.344Z,28.70
2022-08-22T21:08:18.861Z,28.70
2022-08-22T21:11:19.313Z,28.60
2022-08-22T21:13:46.207Z,28.60
2022-08-22T21:16:19.866Z,28.60
2022-08-22T21:18:50.887Z,28.60
2022-08-22T21:21:18.132Z,28.50
2022-08-22T21:23:51.253Z,28.50
2022-08-22T21:26:36.532Z,28.50
2022-08-22T21:29:07.684Z,28.50
2022-08-22T21:31:41.567Z,28.50
2022-08-22T21:34:14.583Z,28.50
2022-08-22T21:36:41.883Z,28.40
2022-08-22T21:39:25.000Z,28.40
2022-08-22T21:42:08.817Z,28.40
2022-08-22T21:44:38.111Z,28.40
2022-08-22T21:47:31.909Z,28.30
2022-08-22T21:50:04.041Z,28.30
2022-08-22T21:52:39.553Z,28.20
2022-08-22T21:55:34.446Z,28.20
2022-08-22T21:58:34.172Z,28.10
2022-08-22T22:01:24.943Z,28.10
2022-08-22T22:03:54.477Z,28.00
2022-08-22T22:06:21.446Z,28.00
2022-08-22T22:08:49.130Z,28.00
2022-08-22T22:11:17.410Z,28.00
2022-08-22T22:13:44.424Z,28.00
2022-08-22T22:16:14.625Z,28.00
2022-08-22T22:18:41.510Z,27.90
2022-08-22T22:21:09.175Z,27.90
2022-08-22T22:23:36.172Z,27.90
2022-08-22T22:26:05.329Z,27.90
2022-08-22T22:28:39.087Z,27.80
2022-08-22T22:31:06.164Z,27.80
2022-08-22T22:33:39.446Z,27.80
2022-08-22T22:36:13.056Z,27.70
2022-08-22T22:38:40.965Z,27.70
2022-08-22T22:41:08.356Z,27.70
2022-08-22T22:43:35.238Z,27.70
2022-08-22T22:46:02.188Z,27.60
2022-08-22T22:48:29.370Z,27.60
2022-08-22T22:50:56.140Z,27.60
2022-08-22T22:53:33.858Z,27.50
2022-08-22T22:56:10.323Z,27.50
2022-08-22T22:58:38.942Z,27.50
2022-08-22T23:01:12.989Z,27.60
2022-08-22T23:03:39.876Z,27.50
2022-08-22T23:06:15.718Z,27.50
2022-08-22T23:08:42.829Z,27.50
2022-08-22T23:11:25.503Z,27.50
2022-08-22T23:13:52.634Z,27.50
2022-08-22T23:16:23.670Z,27.50
2022-08-22T23:18:50.624Z,27.50
2022-08-22T23:21:24.624Z,27.50
2022-08-22T23:23:56.559Z,27.40
2022-08-22T23:26:23.759Z,27.40
2022-08-22T23:28:50.846Z,27.30
2022-08-22T23:31:31.523Z,27.30
2022-08-22T23:34:04.623Z,27.20
2022-08-22T23:36:31.588Z,27.20
2022-08-22T23:38:58.412Z,27.10
2022-08-22T23:41:25.239Z,27.10
2022-08-22T23:43:54.795Z,27.00
2022-08-22T23:46:24.174Z,27.00
2022-08-22T23:48:51.392Z,27.00
2022-08-22T23:51:23.084Z,26.90
2022-08-22T23:53:54.145Z,26.90
2022-08-22T23:56:36.594Z,26.90
2022-08-22T23:59:06.086Z,26.80
